sensor_id;sensor_type;location;lat;lon;timestamp;P1;durP1;ratioP1;P2;durP2;ratioP2
16326;SDS011;34812;49.846;9.610;2023-02-28T00:00:18;6.10;;;4.80;;
16326;SDS011;34812;49.846;9.610;2023-02-28T00:01:21;5.30;;;4.90;;
16326;SDS011;34812;49.846;9.610;2023-02-28T00:02:22;6.05;;;5.47;;
16326;SDS011;34812;49.846;9.610;2023-02-28T00:03:24;6.20;;;5.63;;
16326;SDS011;34812;49.846;9.610;2023-02-28T00:04:25;6.37;;;5.80;;
16326;SDS011;34812;49.846;9.610;2023-02-28T00:05:27;5.28;;;4.78;;
16326;SDS011;34812;49.846;9.610;2023-02-28T00:06:30;5.47;;;4.97;;
16326;SDS011;34812;49.846;9.610;2023-02-28T00:07:31;6.70;;;5.65;;
16326;SDS011;34812;49.846;9.610;2023-02-28T00:08:32;5.23;;;4.83;;
16326;SDS011;34812;49.846;9.610;2023-02-28T00:09:34;5.95;;;5.38;;
16326;SDS011;34812;49.846;9.610;2023-02-28T00:10:35;5.70;;;5.00;;
16326;SDS011;34812;49.846;9.610;2023-02-28T00:11:37;5.07;;;4.68;;
16326;SDS011;34812;49.846;9.610;2023-02-28T00:12:38;5.93;;;5.40;;
16326;SDS011;34812;49.846;9.610;2023-02-28T00:13:41;6.10;;;5.20;;
16326;SDS011;34812;49.846;9.610;2023-02-28T00:14:46;6.13;;;5.63;;
16326;SDS011;34812;49.846;9.610;2023-02-28T00:15:57;5.55;;;5.03;;
16326;SDS011;34812;49.846;9.610;2023-02-28T00:16:59;5.90;;;5.50;;
16326;SDS011;34812;49.846;9.610;2023-02-28T00:18:01;6.43;;;5.93;;
16326;SDS011;34812;49.846;9.610;2023-02-28T00:19:03;6.68;;;5.68;;
16326;SDS011;34812;49.846;9.610;2023-02-28T00:20:05;5.57;;;5.07;;
16326;SDS011;34812;49.846;9.610;2023-02-28T00:21:08;6.28;;;5.78;;
16326;SDS011;34812;49.846;9.610;2023-02-28T00:22:11;6.35;;;5.85;;
16326;SDS011;34812;49.846;9.610;2023-02-28T00:23:12;6.45;;;5.95;;
16326;SDS011;34812;49.846;9.610;2023-02-28T00:24:14;7.80;;;6.10;;
16326;SDS011;34812;49.846;9.610;2023-02-28T00:25:16;6.03;;;5.63;;
16326;SDS011;34812;49.846;9.610;2023-02-28T00:26:19;6.05;;;5.65;;
16326;SDS011;34812;49.846;9.610;2023-02-28T00:27:20;6.30;;;5.70;;
16326;SDS011;34812;49.846;9.610;2023-02-28T00:28:22;6.10;;;5.60;;
16326;SDS011;34812;49.846;9.610;2023-02-28T00:29:23;6.18;;;5.57;;
16326;SDS011;34812;49.846;9.610;2023-02-28T00:30:25;6.18;;;5.65;;
16326;SDS011;34812;49.846;9.610;2023-02-28T00:31:26;5.73;;;5.23;;
16326;SDS011;34812;49.846;9.610;2023-02-28T00:32:28;6.30;;;5.55;;
16326;SDS011;34812;49.846;9.610;2023-02-28T00:33:29;5.63;;;5.22;;
16326;SDS011;34812;49.846;9.610;2023-02-28T00:34:31;6.30;;;5.70;;
16326;SDS011;34812;49.846;9.610;2023-02-28T00:35:37;6.03;;;5.57;;
16326;SDS011;34812;49.846;9.610;2023-02-28T00:36:39;6.43;;;5.07;;
16326;SDS011;34812;49.846;9.610;2023-02-28T00:37:45;5.85;;;5.03;;
16326;SDS011;34812;49.846;9.610;2023-02-28T00:38:46;6.30;;;5.68;;
16326;SDS011;34812;49.846;9.610;2023-02-28T00:39:47;7.03;;;6.30;;
16326;SDS011;34812;49.846;9.610;2023-02-28T00:40:49;6.22;;;5.72;;
16326;SDS011;34812;49.846;9.610;2023-02-28T00:41:50;6.03;;;5.53;;
16326;SDS011;34812;49.846;9.610;2023-02-28T00:42:52;6.30;;;5.78;;
16326;SDS011;34812;49.846;9.610;2023-02-28T00:43:53;6.00;;;5.50;;
16326;SDS011;34812;49.846;9.610;2023-02-28T00:44:54;6.15;;;5.75;;
16326;SDS011;34812;49.846;9.610;2023-02-28T00:45:55;6.57;;;6.07;;
16326;SDS011;34812;49.846;9.610;2023-02-28T00:46:58;5.72;;;5.15;;
16326;SDS011;34812;49.846;9.610;2023-02-28T00:47:59;6.75;;;6.05;;
16326;SDS011;34812;49.846;9.610;2023-02-28T00:49:00;5.57;;;5.10;;
16326;SDS011;34812;49.846;9.610;2023-02-28T00:50:02;6.27;;;5.73;;
16326;SDS011;34812;49.846;9.610;2023-02-28T00:51:04;5.88;;;5.38;;
16326;SDS011;34812;49.846;9.610;2023-02-28T00:52:05;5.80;;;5.30;;
16326;SDS011;34812;49.846;9.610;2023-02-28T00:53:08;6.45;;;5.18;;
16326;SDS011;34812;49.846;9.610;2023-02-28T00:54:09;5.82;;;5.43;;
16326;SDS011;34812;49.846;9.610;2023-02-28T00:55:11;5.22;;;4.82;;
16326;SDS011;34812;49.846;9.610;2023-02-28T00:56:12;6.37;;;5.73;;
16326;SDS011;34812;49.846;9.610;2023-02-28T00:57:14;6.18;;;5.63;;
16326;SDS011;34812;49.846;9.610;2023-02-28T00:58:14;5.73;;;5.33;;
16326;SDS011;34812;49.846;9.610;2023-02-28T00:59:17;5.90;;;5.40;;
16326;SDS011;34812;49.846;9.610;2023-02-28T01:00:18;5.72;;;5.18;;
16326;SDS011;34812;49.846;9.610;2023-02-28T01:01:20;5.57;;;5.07;;
16326;SDS011;34812;49.846;9.610;2023-02-28T01:02:21;6.27;;;5.67;;
16326;SDS011;34812;49.846;9.610;2023-02-28T01:03:26;6.00;;;5.55;;
16326;SDS011;34812;49.846;9.610;2023-02-28T01:04:27;6.03;;;5.43;;
16326;SDS011;34812;49.846;9.610;2023-02-28T01:05:28;6.20;;;5.60;;
16326;SDS011;34812;49.846;9.610;2023-02-28T01:06:30;6.15;;;5.55;;
16326;SDS011;34812;49.846;9.610;2023-02-28T01:07:32;6.22;;;5.50;;
16326;SDS011;34812;49.846;9.610;2023-02-28T01:08:34;5.57;;;5.17;;
16326;SDS011;34812;49.846;9.610;2023-02-28T01:09:36;5.97;;;5.47;;
16326;SDS011;34812;49.846;9.610;2023-02-28T01:10:38;6.22;;;5.75;;
16326;SDS011;34812;49.846;9.610;2023-02-28T01:11:41;6.30;;;5.80;;
16326;SDS011;34812;49.846;9.610;2023-02-28T01:12:44;5.85;;;5.40;;
16326;SDS011;34812;49.846;9.610;2023-02-28T01:13:46;6.30;;;5.82;;
16326;SDS011;34812;49.846;9.610;2023-02-28T01:14:47;6.35;;;5.75;;
16326;SDS011;34812;49.846;9.610;2023-02-28T01:15:49;5.85;;;4.88;;
16326;SDS011;34812;49.846;9.610;2023-02-28T01:16:51;5.78;;;5.30;;
16326;SDS011;34812;49.846;9.610;2023-02-28T01:17:53;5.90;;;5.43;;
16326;SDS011;34812;49.846;9.610;2023-02-28T01:18:56;6.38;;;5.75;;
16326;SDS011;34812;49.846;9.610;2023-02-28T01:19:58;6.13;;;5.40;;
16326;SDS011;34812;49.846;9.610;2023-02-28T01:21:02;6.25;;;5.75;;
16326;SDS011;34812;49.846;9.610;2023-02-28T01:22:05;6.22;;;5.63;;
16326;SDS011;34812;49.846;9.610;2023-02-28T01:23:06;7.78;;;5.90;;
16326;SDS011;34812;49.846;9.610;2023-02-28T01:24:09;6.40;;;5.70;;
16326;SDS011;34812;49.846;9.610;2023-02-28T01:25:10;5.78;;;5.35;;
16326;SDS011;34812;49.846;9.610;2023-02-28T01:26:14;5.97;;;5.38;;
16326;SDS011;34812;49.846;9.610;2023-02-28T01:27:16;6.45;;;5.85;;
16326;SDS011;34812;49.846;9.610;2023-02-28T01:28:17;5.65;;;5.15;;
16326;SDS011;34812;49.846;9.610;2023-02-28T01:29:18;6.00;;;5.50;;
16326;SDS011;34812;49.846;9.610;2023-02-28T01:30:20;6.28;;;5.68;;
16326;SDS011;34812;49.846;9.610;2023-02-28T01:31:22;7.33;;;6.63;;
16326;SDS011;34812;49.846;9.610;2023-02-28T01:32:24;6.25;;;5.65;;
16326;SDS011;34812;49.846;9.610;2023-02-28T01:33:25;5.27;;;4.87;;
16326;SDS011;34812;49.846;9.610;2023-02-28T01:34:27;6.53;;;5.68;;
16326;SDS011;34812;49.846;9.610;2023-02-28T01:35:27;6.93;;;6.27;;
16326;SDS011;34812;49.846;9.610;2023-02-28T01:36:29;5.88;;;5.43;;
16326;SDS011;34812;49.846;9.610;2023-02-28T01:37:30;5.67;;;5.27;;
16326;SDS011;34812;49.846;9.610;2023-02-28T01:38:32;5.95;;;5.53;;
16326;SDS011;34812;49.846;9.610;2023-02-28T01:39:35;5.82;;;5.40;;
16326;SDS011;34812;49.846;9.610;2023-02-28T01:40:37;6.25;;;5.65;;
16326;SDS011;34812;49.846;9.610;2023-02-28T01:41:38;6.20;;;5.63;;
16326;SDS011;34812;49.846;9.610;2023-02-28T01:42:41;6.10;;;5.68;;
16326;SDS011;34812;49.846;9.610;2023-02-28T01:43:52;5.23;;;4.83;;
16326;SDS011;34812;49.846;9.610;2023-02-28T01:45:06;5.90;;;5.35;;
16326;SDS011;34812;49.846;9.610;2023-02-28T01:46:22;6.78;;;5.57;;
16326;SDS011;34812;49.846;9.610;2023-02-28T01:47:24;6.25;;;5.75;;
16326;SDS011;34812;49.846;9.610;2023-02-28T01:48:27;6.57;;;5.57;;
16326;SDS011;34812;49.846;9.610;2023-02-28T01:49:32;6.50;;;5.90;;
16326;SDS011;34812;49.846;9.610;2023-02-28T01:50:34;7.37;;;5.37;;
16326;SDS011;34812;49.846;9.610;2023-02-28T01:51:40;5.32;;;4.90;;
16326;SDS011;34812;49.846;9.610;2023-02-28T01:52:45;5.57;;;5.07;;
16326;SDS011;34812;49.846;9.610;2023-02-28T01:53:50;5.40;;;4.90;;
16326;SDS011;34812;49.846;9.610;2023-02-28T01:54:57;6.47;;;5.80;;
16326;SDS011;34812;49.846;9.610;2023-02-28T01:56:00;5.90;;;5.30;;
16326;SDS011;34812;49.846;9.610;2023-02-28T01:57:07;6.20;;;5.70;;
16326;SDS011;34812;49.846;9.610;2023-02-28T01:58:12;6.07;;;5.47;;
16326;SDS011;34812;49.846;9.610;2023-02-28T01:59:14;6.00;;;5.50;;
16326;SDS011;34812;49.846;9.610;2023-02-28T02:00:23;6.20;;;5.60;;
16326;SDS011;34812;49.846;9.610;2023-02-28T02:01:27;6.10;;;5.60;;
16326;SDS011;34812;49.846;9.610;2023-02-28T02:02:30;5.72;;;5.20;;
16326;SDS011;34812;49.846;9.610;2023-02-28T02:03:31;5.93;;;5.43;;
16326;SDS011;34812;49.846;9.610;2023-02-28T02:04:34;5.60;;;5.10;;
16326;SDS011;34812;49.846;9.610;2023-02-28T02:05:39;6.07;;;5.57;;
16326;SDS011;34812;49.846;9.610;2023-02-28T02:06:48;5.47;;;5.07;;
16326;SDS011;34812;49.846;9.610;2023-02-28T02:07:50;6.53;;;5.93;;
16326;SDS011;34812;49.846;9.610;2023-02-28T02:08:55;6.13;;;5.57;;
16326;SDS011;34812;49.846;9.610;2023-02-28T02:10:02;6.18;;;5.68;;
16326;SDS011;34812;49.846;9.610;2023-02-28T02:11:07;6.20;;;5.60;;
16326;SDS011;34812;49.846;9.610;2023-02-28T02:12:11;6.88;;;5.65;;
16326;SDS011;34812;49.846;9.610;2023-02-28T02:13:30;5.75;;;5.22;;
16326;SDS011;34812;49.846;9.610;2023-02-28T02:14:46;5.28;;;4.88;;
16326;SDS011;34812;49.846;9.610;2023-02-28T02:16:02;6.10;;;5.50;;
16326;SDS011;34812;49.846;9.610;2023-02-28T02:17:12;6.00;;;5.60;;
16326;SDS011;34812;49.846;9.610;2023-02-28T02:18:25;7.47;;;5.80;;
16326;SDS011;34812;49.846;9.610;2023-02-28T02:23:01;6.13;;;5.63;;
16326;SDS011;34812;49.846;9.610;2023-02-28T02:25:52;5.93;;;5.35;;
16326;SDS011;34812;49.846;9.610;2023-02-28T02:28:35;6.55;;;5.72;;
16326;SDS011;34812;49.846;9.610;2023-02-28T02:29:53;6.05;;;5.63;;
16326;SDS011;34812;49.846;9.610;2023-02-28T02:31:42;6.25;;;5.65;;
16326;SDS011;34812;49.846;9.610;2023-02-28T02:33:06;6.32;;;5.85;;
16326;SDS011;34812;49.846;9.610;2023-02-28T02:35:56;5.60;;;5.13;;
16326;SDS011;34812;49.846;9.610;2023-02-28T02:37:13;6.03;;;5.47;;
16326;SDS011;34812;49.846;9.610;2023-02-28T02:38:25;6.78;;;6.18;;
16326;SDS011;34812;49.846;9.610;2023-02-28T02:39:40;6.35;;;5.85;;
16326;SDS011;34812;49.846;9.610;2023-02-28T02:40:51;7.82;;;6.43;;
16326;SDS011;34812;49.846;9.610;2023-02-28T02:41:58;6.43;;;5.85;;
16326;SDS011;34812;49.846;9.610;2023-02-28T02:43:03;6.40;;;5.82;;
16326;SDS011;34812;49.846;9.610;2023-02-28T02:44:12;6.50;;;5.90;;
16326;SDS011;34812;49.846;9.610;2023-02-28T02:45:22;6.20;;;5.70;;
16326;SDS011;34812;49.846;9.610;2023-02-28T02:46:28;6.50;;;6.00;;
16326;SDS011;34812;49.846;9.610;2023-02-28T02:47:33;6.28;;;5.68;;
16326;SDS011;34812;49.846;9.610;2023-02-28T02:48:37;6.65;;;5.95;;
16326;SDS011;34812;49.846;9.610;2023-02-28T02:49:40;6.25;;;5.75;;
16326;SDS011;34812;49.846;9.610;2023-02-28T02:50:48;6.72;;;6.13;;
16326;SDS011;34812;49.846;9.610;2023-02-28T02:51:51;6.45;;;6.05;;
16326;SDS011;34812;49.846;9.610;2023-02-28T02:52:56;6.85;;;6.32;;
16326;SDS011;34812;49.846;9.610;2023-02-28T02:54:02;6.72;;;6.13;;
16326;SDS011;34812;49.846;9.610;2023-02-28T02:55:09;5.82;;;5.43;;
16326;SDS011;34812;49.846;9.610;2023-02-28T02:56:13;6.53;;;5.93;;
16326;SDS011;34812;49.846;9.610;2023-02-28T02:57:17;5.70;;;5.30;;
16326;SDS011;34812;49.846;9.610;2023-02-28T02:58:24;6.60;;;6.10;;
16326;SDS011;34812;49.846;9.610;2023-02-28T02:59:30;6.45;;;5.95;;
16326;SDS011;34812;49.846;9.610;2023-02-28T03:00:33;6.70;;;5.55;;
16326;SDS011;34812;49.846;9.610;2023-02-28T03:01:38;6.20;;;5.68;;
16326;SDS011;34812;49.846;9.610;2023-02-28T03:02:41;6.45;;;5.95;;
16326;SDS011;34812;49.846;9.610;2023-02-28T03:03:45;6.22;;;5.70;;
16326;SDS011;34812;49.846;9.610;2023-02-28T03:04:48;6.57;;;6.00;;
16326;SDS011;34812;49.846;9.610;2023-02-28T03:05:57;6.13;;;5.60;;
16326;SDS011;34812;49.846;9.610;2023-02-28T03:06:59;6.50;;;6.00;;
16326;SDS011;34812;49.846;9.610;2023-02-28T03:08:03;6.32;;;5.82;;
16326;SDS011;34812;49.846;9.610;2023-02-28T03:09:05;6.32;;;5.90;;
16326;SDS011;34812;49.846;9.610;2023-02-28T03:11:27;6.38;;;5.78;;
16326;SDS011;34812;49.846;9.610;2023-02-28T03:12:32;6.38;;;5.78;;
16326;SDS011;34812;49.846;9.610;2023-02-28T03:13:49;6.03;;;5.63;;
16326;SDS011;34812;49.846;9.610;2023-02-28T03:15:11;6.35;;;5.82;;
16326;SDS011;34812;49.846;9.610;2023-02-28T03:18:03;6.15;;;5.63;;
16326;SDS011;34812;49.846;9.610;2023-02-28T03:20:37;6.30;;;5.72;;
16326;SDS011;34812;49.846;9.610;2023-02-28T03:21:46;6.95;;;6.35;;
16326;SDS011;34812;49.846;9.610;2023-02-28T03:22:57;6.38;;;5.88;;
16326;SDS011;34812;49.846;9.610;2023-02-28T03:24:09;5.93;;;5.50;;
16326;SDS011;34812;49.846;9.610;2023-02-28T03:25:16;7.68;;;6.75;;
16326;SDS011;34812;49.846;9.610;2023-02-28T03:26:22;6.72;;;6.13;;
16326;SDS011;34812;49.846;9.610;2023-02-28T03:27:26;6.63;;;6.13;;
16326;SDS011;34812;49.846;9.610;2023-02-28T03:28:31;7.30;;;6.32;;
16326;SDS011;34812;49.846;9.610;2023-02-28T03:29:37;6.78;;;6.22;;
16326;SDS011;34812;49.846;9.610;2023-02-28T03:30:45;6.32;;;5.75;;
16326;SDS011;34812;49.846;9.610;2023-02-28T03:31:52;7.03;;;6.38;;
16326;SDS011;34812;49.846;9.610;2023-02-28T03:33:00;6.88;;;6.28;;
16326;SDS011;34812;49.846;9.610;2023-02-28T03:34:08;6.80;;;6.20;;
16326;SDS011;34812;49.846;9.610;2023-02-28T03:35:14;7.22;;;6.63;;
16326;SDS011;34812;49.846;9.610;2023-02-28T03:36:22;6.80;;;6.20;;
16326;SDS011;34812;49.846;9.610;2023-02-28T03:37:29;6.63;;;6.13;;
16326;SDS011;34812;49.846;9.610;2023-02-28T03:38:35;8.23;;;6.32;;
16326;SDS011;34812;49.846;9.610;2023-02-28T03:39:42;7.20;;;6.60;;
16326;SDS011;34812;49.846;9.610;2023-02-28T03:40:48;7.13;;;6.53;;
16326;SDS011;34812;49.846;9.610;2023-02-28T03:41:52;6.50;;;6.00;;
16326;SDS011;34812;49.846;9.610;2023-02-28T03:42:57;6.25;;;5.75;;
16326;SDS011;34812;49.846;9.610;2023-02-28T03:44:05;7.47;;;6.78;;
16326;SDS011;34812;49.846;9.610;2023-02-28T03:45:10;6.93;;;6.32;;
16326;SDS011;34812;49.846;9.610;2023-02-28T03:46:17;9.43;;;6.82;;
16326;SDS011;34812;49.846;9.610;2023-02-28T03:47:21;6.82;;;6.22;;
16326;SDS011;34812;49.846;9.610;2023-02-28T03:48:27;6.93;;;6.35;;
16326;SDS011;34812;49.846;9.610;2023-02-28T03:49:35;7.18;;;6.47;;
16326;SDS011;34812;49.846;9.610;2023-02-28T03:50:43;7.45;;;6.53;;
16326;SDS011;34812;49.846;9.610;2023-02-28T03:51:46;7.78;;;7.07;;
16326;SDS011;34812;49.846;9.610;2023-02-28T03:52:52;6.72;;;6.13;;
16326;SDS011;34812;49.846;9.610;2023-02-28T03:54:03;7.43;;;6.78;;
16326;SDS011;34812;49.846;9.610;2023-02-28T03:55:08;7.18;;;6.53;;
16326;SDS011;34812;49.846;9.610;2023-02-28T03:56:13;7.50;;;6.78;;
16326;SDS011;34812;49.846;9.610;2023-02-28T03:57:20;6.57;;;5.97;;
16326;SDS011;34812;49.846;9.610;2023-02-28T03:58:29;7.88;;;7.28;;
16326;SDS011;34812;49.846;9.610;2023-02-28T03:59:34;7.45;;;6.75;;
16326;SDS011;34812;49.846;9.610;2023-02-28T04:00:39;7.40;;;6.70;;
16326;SDS011;34812;49.846;9.610;2023-02-28T04:01:45;7.53;;;6.95;;
16326;SDS011;34812;49.846;9.610;2023-02-28T04:02:48;8.07;;;7.28;;
16326;SDS011;34812;49.846;9.610;2023-02-28T04:03:52;7.03;;;6.32;;
16326;SDS011;34812;49.846;9.610;2023-02-28T04:04:53;7.55;;;6.95;;
16326;SDS011;34812;49.846;9.610;2023-02-28T04:05:55;7.40;;;6.80;;
16326;SDS011;34812;49.846;9.610;2023-02-28T04:07:01;6.88;;;6.28;;
16326;SDS011;34812;49.846;9.610;2023-02-28T04:08:07;6.88;;;6.28;;
16326;SDS011;34812;49.846;9.610;2023-02-28T04:09:09;7.35;;;6.68;;
16326;SDS011;34812;49.846;9.610;2023-02-28T04:10:12;7.72;;;7.03;;
16326;SDS011;34812;49.846;9.610;2023-02-28T04:11:16;7.23;;;6.63;;
16326;SDS011;34812;49.846;9.610;2023-02-28T04:12:22;7.45;;;6.75;;
16326;SDS011;34812;49.846;9.610;2023-02-28T04:13:23;7.05;;;6.45;;
16326;SDS011;34812;49.846;9.610;2023-02-28T04:14:25;7.70;;;7.00;;
16326;SDS011;34812;49.846;9.610;2023-02-28T04:15:25;8.17;;;6.20;;
16326;SDS011;34812;49.846;9.610;2023-02-28T04:16:27;7.90;;;7.20;;
16326;SDS011;34812;49.846;9.610;2023-02-28T04:17:28;7.65;;;6.97;;
16326;SDS011;34812;49.846;9.610;2023-02-28T04:18:30;7.65;;;6.50;;
16326;SDS011;34812;49.846;9.610;2023-02-28T04:19:31;7.53;;;6.87;;
16326;SDS011;34812;49.846;9.610;2023-02-28T04:20:33;7.35;;;6.78;;
16326;SDS011;34812;49.846;9.610;2023-02-28T04:21:35;7.00;;;6.50;;
16326;SDS011;34812;49.846;9.610;2023-02-28T04:22:38;7.97;;;7.32;;
16326;SDS011;34812;49.846;9.610;2023-02-28T04:23:41;7.27;;;6.67;;
16326;SDS011;34812;49.846;9.610;2023-02-28T04:24:43;7.25;;;6.65;;
16326;SDS011;34812;49.846;9.610;2023-02-28T04:25:43;7.87;;;7.17;;
16326;SDS011;34812;49.846;9.610;2023-02-28T04:26:46;6.65;;;6.05;;
16326;SDS011;34812;49.846;9.610;2023-02-28T04:27:48;7.75;;;7.05;;
16326;SDS011;34812;49.846;9.610;2023-02-28T04:28:49;8.10;;;7.40;;
16326;SDS011;34812;49.846;9.610;2023-02-28T04:29:50;9.07;;;6.70;;
16326;SDS011;34812;49.846;9.610;2023-02-28T04:30:56;7.97;;;7.25;;
16326;SDS011;34812;49.846;9.610;2023-02-28T04:31:57;7.70;;;7.00;;
16326;SDS011;34812;49.846;9.610;2023-02-28T04:33:00;7.85;;;7.25;;
16326;SDS011;34812;49.846;9.610;2023-02-28T04:34:01;8.00;;;7.30;;
16326;SDS011;34812;49.846;9.610;2023-02-28T04:35:03;9.18;;;7.10;;
16326;SDS011;34812;49.846;9.610;2023-02-28T04:36:05;7.18;;;6.47;;
16326;SDS011;34812;49.846;9.610;2023-02-28T04:37:09;7.22;;;6.63;;
16326;SDS011;34812;49.846;9.610;2023-02-28T04:38:10;6.67;;;6.17;;
16326;SDS011;34812;49.846;9.610;2023-02-28T04:39:13;7.68;;;7.07;;
16326;SDS011;34812;49.846;9.610;2023-02-28T04:40:14;6.85;;;6.25;;
16326;SDS011;34812;49.846;9.610;2023-02-28T04:41:16;6.88;;;6.25;;
16326;SDS011;34812;49.846;9.610;2023-02-28T04:42:17;6.93;;;6.32;;
16326;SDS011;34812;49.846;9.610;2023-02-28T04:43:18;6.80;;;6.30;;
16326;SDS011;34812;49.846;9.610;2023-02-28T04:44:19;7.60;;;6.90;;
16326;SDS011;34812;49.846;9.610;2023-02-28T04:45:21;7.55;;;6.90;;
16326;SDS011;34812;49.846;9.610;2023-02-28T04:46:22;6.47;;;5.90;;
16326;SDS011;34812;49.846;9.610;2023-02-28T04:47:24;6.55;;;5.95;;
16326;SDS011;34812;49.846;9.610;2023-02-28T04:48:26;7.37;;;6.67;;
16326;SDS011;34812;49.846;9.610;2023-02-28T04:49:29;7.78;;;7.07;;
16326;SDS011;34812;49.846;9.610;2023-02-28T04:50:30;6.83;;;6.33;;
16326;SDS011;34812;49.846;9.610;2023-02-28T04:51:32;7.97;;;7.18;;
16326;SDS011;34812;49.846;9.610;2023-02-28T04:52:33;7.25;;;6.53;;
16326;SDS011;34812;49.846;9.610;2023-02-28T04:53:34;7.30;;;6.70;;
16326;SDS011;34812;49.846;9.610;2023-02-28T04:54:38;7.32;;;6.60;;
16326;SDS011;34812;49.846;9.610;2023-02-28T04:55:39;6.80;;;6.20;;
16326;SDS011;34812;49.846;9.610;2023-02-28T04:56:41;7.35;;;6.75;;
16326;SDS011;34812;49.846;9.610;2023-02-28T04:57:42;6.67;;;6.07;;
16326;SDS011;34812;49.846;9.610;2023-02-28T04:58:43;7.47;;;5.95;;
16326;SDS011;34812;49.846;9.610;2023-02-28T04:59:45;6.72;;;6.13;;
16326;SDS011;34812;49.846;9.610;2023-02-28T05:00:46;7.30;;;6.60;;
16326;SDS011;34812;49.846;9.610;2023-02-28T05:01:48;6.57;;;5.97;;
16326;SDS011;34812;49.846;9.610;2023-02-28T05:02:50;6.90;;;6.32;;
16326;SDS011;34812;49.846;9.610;2023-02-28T05:03:51;6.60;;;5.67;;
16326;SDS011;34812;49.846;9.610;2023-02-28T05:04:55;6.97;;;6.45;;
16326;SDS011;34812;49.846;9.610;2023-02-28T05:05:55;6.83;;;6.23;;
16326;SDS011;34812;49.846;9.610;2023-02-28T05:06:57;7.13;;;6.57;;
16326;SDS011;34812;49.846;9.610;2023-02-28T05:07:58;6.57;;;5.97;;
16326;SDS011;34812;49.846;9.610;2023-02-28T05:09:00;6.43;;;5.82;;
16326;SDS011;34812;49.846;9.610;2023-02-28T05:10:02;7.10;;;6.45;;
16326;SDS011;34812;49.846;9.610;2023-02-28T05:11:06;7.25;;;6.65;;
16326;SDS011;34812;49.846;9.610;2023-02-28T05:12:08;7.10;;;6.00;;
16326;SDS011;34812;49.846;9.610;2023-02-28T05:13:11;7.25;;;6.65;;
16326;SDS011;34812;49.846;9.610;2023-02-28T05:14:13;8.65;;;6.03;;
16326;SDS011;34812;49.846;9.610;2023-02-28T05:15:16;6.57;;;5.90;;
16326;SDS011;34812;49.846;9.610;2023-02-28T05:16:17;6.75;;;6.15;;
16326;SDS011;34812;49.846;9.610;2023-02-28T05:17:19;6.45;;;5.95;;
16326;SDS011;34812;49.846;9.610;2023-02-28T05:18:20;6.43;;;5.83;;
16326;SDS011;34812;49.846;9.610;2023-02-28T05:19:22;7.20;;;6.50;;
16326;SDS011;34812;49.846;9.610;2023-02-28T05:20:23;7.57;;;6.73;;
16326;SDS011;34812;49.846;9.610;2023-02-28T05:21:26;6.90;;;6.18;;
16326;SDS011;34812;49.846;9.610;2023-02-28T05:22:28;6.82;;;6.22;;
16326;SDS011;34812;49.846;9.610;2023-02-28T05:23:30;8.98;;;5.93;;
16326;SDS011;34812;49.846;9.610;2023-02-28T05:24:31;7.47;;;6.78;;
16326;SDS011;34812;49.846;9.610;2023-02-28T05:25:34;7.20;;;6.60;;
16326;SDS011;34812;49.846;9.610;2023-02-28T05:26:35;7.30;;;6.60;;
16326;SDS011;34812;49.846;9.610;2023-02-28T05:27:38;6.75;;;6.10;;
16326;SDS011;34812;49.846;9.610;2023-02-28T05:28:39;8.07;;;7.30;;
16326;SDS011;34812;49.846;9.610;2023-02-28T05:29:41;6.90;;;6.13;;
16326;SDS011;34812;49.846;9.610;2023-02-28T05:30:46;8.35;;;6.50;;
16326;SDS011;34812;49.846;9.610;2023-02-28T05:31:47;6.75;;;6.10;;
16326;SDS011;34812;49.846;9.610;2023-02-28T05:32:49;7.03;;;6.43;;
16326;SDS011;34812;49.846;9.610;2023-02-28T05:33:51;7.00;;;6.13;;
16326;SDS011;34812;49.846;9.610;2023-02-28T05:34:53;6.72;;;6.07;;
16326;SDS011;34812;49.846;9.610;2023-02-28T05:35:53;7.10;;;6.40;;
16326;SDS011;34812;49.846;9.610;2023-02-28T05:36:55;6.38;;;5.68;;
16326;SDS011;34812;49.846;9.610;2023-02-28T05:37:56;7.37;;;6.60;;
16326;SDS011;34812;49.846;9.610;2023-02-28T05:38:58;7.80;;;7.03;;
16326;SDS011;34812;49.846;9.610;2023-02-28T05:39:59;7.57;;;6.60;;
16326;SDS011;34812;49.846;9.610;2023-02-28T05:41:05;7.22;;;6.55;;
16326;SDS011;34812;49.846;9.610;2023-02-28T05:42:07;7.10;;;6.50;;
16326;SDS011;34812;49.846;9.610;2023-02-28T05:43:10;7.30;;;6.63;;
16326;SDS011;34812;49.846;9.610;2023-02-28T05:44:11;6.47;;;5.82;;
16326;SDS011;34812;49.846;9.610;2023-02-28T05:45:13;6.93;;;6.03;;
16326;SDS011;34812;49.846;9.610;2023-02-28T05:46:14;6.60;;;6.00;;
16326;SDS011;34812;49.846;9.610;2023-02-28T05:47:16;6.72;;;6.22;;
16326;SDS011;34812;49.846;9.610;2023-02-28T05:48:17;6.80;;;6.20;;
16326;SDS011;34812;49.846;9.610;2023-02-28T05:49:19;6.95;;;6.30;;
16326;SDS011;34812;49.846;9.610;2023-02-28T05:50:20;6.93;;;6.33;;
16326;SDS011;34812;49.846;9.610;2023-02-28T05:51:21;7.07;;;6.45;;
16326;SDS011;34812;49.846;9.610;2023-02-28T05:52:22;7.30;;;6.60;;
16326;SDS011;34812;49.846;9.610;2023-02-28T05:53:24;6.85;;;6.25;;
16326;SDS011;34812;49.846;9.610;2023-02-28T05:54:26;7.70;;;6.07;;
16326;SDS011;34812;49.846;9.610;2023-02-28T05:55:28;7.80;;;7.03;;
16326;SDS011;34812;49.846;9.610;2023-02-28T05:56:30;7.50;;;6.80;;
16326;SDS011;34812;49.846;9.610;2023-02-28T05:57:34;6.93;;;6.28;;
16326;SDS011;34812;49.846;9.610;2023-02-28T05:58:35;6.97;;;6.33;;
16326;SDS011;34812;49.846;9.610;2023-02-28T05:59:37;7.13;;;6.43;;
16326;SDS011;34812;49.846;9.610;2023-02-28T06:00:39;12.48;;;7.55;;
16326;SDS011;34812;49.846;9.610;2023-02-28T06:01:41;10.27;;;8.37;;
16326;SDS011;34812;49.846;9.610;2023-02-28T06:02:47;7.88;;;7.18;;
16326;SDS011;34812;49.846;9.610;2023-02-28T06:03:48;6.57;;;6.03;;
16326;SDS011;34812;49.846;9.610;2023-02-28T06:04:51;7.03;;;6.43;;
16326;SDS011;34812;49.846;9.610;2023-02-28T06:05:53;7.65;;;6.95;;
16326;SDS011;34812;49.846;9.610;2023-02-28T06:06:54;7.70;;;6.97;;
16326;SDS011;34812;49.846;9.610;2023-02-28T06:07:57;7.72;;;7.03;;
16326;SDS011;34812;49.846;9.610;2023-02-28T06:08:59;7.85;;;7.07;;
16326;SDS011;34812;49.846;9.610;2023-02-28T06:10:00;8.82;;;7.07;;
16326;SDS011;34812;49.846;9.610;2023-02-28T06:11:02;7.55;;;6.82;;
16326;SDS011;34812;49.846;9.610;2023-02-28T06:12:05;7.10;;;6.47;;
16326;SDS011;34812;49.846;9.610;2023-02-28T06:13:09;7.40;;;6.75;;
16326;SDS011;34812;49.846;9.610;2023-02-28T06:14:12;6.85;;;6.15;;
16326;SDS011;34812;49.846;9.610;2023-02-28T06:15:16;6.40;;;5.90;;
16326;SDS011;34812;49.846;9.610;2023-02-28T06:16:17;8.57;;;7.27;;
16326;SDS011;34812;49.846;9.610;2023-02-28T06:17:18;7.43;;;6.53;;
16326;SDS011;34812;49.846;9.610;2023-02-28T06:18:19;7.27;;;6.50;;
16326;SDS011;34812;49.846;9.610;2023-02-28T06:19:21;7.22;;;6.53;;
16326;SDS011;34812;49.846;9.610;2023-02-28T06:20:23;7.00;;;6.40;;
16326;SDS011;34812;49.846;9.610;2023-02-28T06:21:26;8.20;;;7.03;;
16326;SDS011;34812;49.846;9.610;2023-02-28T06:22:27;7.05;;;6.45;;
16326;SDS011;34812;49.846;9.610;2023-02-28T06:23:29;6.97;;;6.35;;
16326;SDS011;34812;49.846;9.610;2023-02-28T06:24:30;7.03;;;6.32;;
16326;SDS011;34812;49.846;9.610;2023-02-28T06:25:32;7.10;;;6.40;;
16326;SDS011;34812;49.846;9.610;2023-02-28T06:26:33;7.30;;;6.60;;
16326;SDS011;34812;49.846;9.610;2023-02-28T06:27:36;7.28;;;6.53;;
16326;SDS011;34812;49.846;9.610;2023-02-28T06:28:37;6.90;;;6.20;;
16326;SDS011;34812;49.846;9.610;2023-02-28T06:29:38;7.15;;;6.22;;
16326;SDS011;34812;49.846;9.610;2023-02-28T06:30:39;8.50;;;6.80;;
16326;SDS011;34812;49.846;9.610;2023-02-28T06:31:41;7.10;;;6.50;;
16326;SDS011;34812;49.846;9.610;2023-02-28T06:32:42;7.50;;;6.87;;
16326;SDS011;34812;49.846;9.610;2023-02-28T06:33:44;6.55;;;5.95;;
16326;SDS011;34812;49.846;9.610;2023-02-28T06:34:47;6.53;;;5.93;;
16326;SDS011;34812;49.846;9.610;2023-02-28T06:35:49;6.30;;;5.80;;
16326;SDS011;34812;49.846;9.610;2023-02-28T06:36:52;7.30;;;6.70;;